Time;durP1;ratioP1;P1;durP2;ratioP2;P2;SDS_P1;SDS_P2;PMS_P1;PMS_P2;Temp;Humidity;BMP_temperature;BMP_pressure;BME280_temperature;BME280_humidity;BME280_pressure;Samples;Min_cycle;Max_cycle;Signal;HPM_P1;HPM_P2
2022/10/25 00:00:50;;;;;;;4.10;0.70;;;16.30;99.90;;;;;;4968506;28;20296;-82
2022/10/25 00:03:15;;;;;;;2.80;0.70;;;16.30;99.90;;;;;;4984287;28;20026;-83
2022/10/25 00:05:41;;;;;;;1.63;0.80;;;16.30;99.90;;;;;;4975564;28;20022;-82
2022/10/25 00:08:08;;;;;;;2.70;0.73;;;16.20;99.90;;;;;;4973779;28;20318;-82
2022/10/25 00:10:34;;;;;;;2.67;0.70;;;16.20;99.90;;;;;;4966284;28;20050;-83
2022/10/25 00:13:00;;;;;;;2.97;0.80;;;16.20;99.90;;;;;;4996905;28;20124;-82
2022/10/25 00:15:26;;;;;;;3.25;0.82;;;16.20;99.90;;;;;;4985818;28;20038;-82
2022/10/25 00:17:52;;;;;;;2.67;0.70;;;16.20;99.90;;;;;;4992733;28;20346;-83
2022/10/25 00:20:18;;;;;;;1.95;0.68;;;16.20;99.90;;;;;;4987350;28;20030;-83
2022/10/25 00:22:43;;;;;;;3.75;0.95;;;16.20;99.90;;;;;;4978730;28;20022;-83
2022/10/25 00:25:10;;;;;;;2.03;0.90;;;16.20;99.90;;;;;;4976984;28;20259;-83
2022/10/25 00:27:36;;;;;;;3.75;1.00;;;16.20;99.90;;;;;;4979809;28;20034;-83
2022/10/25 00:30:03;;;;;;;2.72;0.82;;;16.20;99.90;;;;;;4978642;28;20516;-83
2022/10/25 00:32:29;;;;;;;3.03;0.80;;;16.20;99.90;;;;;;4995062;28;20034;-83
2022/10/25 00:34:55;;;;;;;3.13;0.97;;;16.20;99.90;;;;;;4963956;28;20103;-84
2022/10/25 00:37:20;;;;;;;2.63;1.00;;;16.20;99.90;;;;;;4991261;28;20034;-83
2022/10/25 00:39:46;;;;;;;2.10;0.70;;;16.20;99.90;;;;;;4994539;28;20543;-82
2022/10/25 00:42:21;;;;;;;3.33;0.80;;;16.20;99.90;;;;;;4968411;28;20112;-82
2022/10/25 00:44:50;;;;;;;2.25;0.70;;;16.20;99.90;;;;;;4990172;28;20103;-81
2022/10/25 00:47:19;;;;;;;2.95;0.90;;;16.20;99.90;;;;;;4986397;28;20076;-81
2022/10/25 00:50:05;;;;;;;2.58;0.77;;;16.20;99.90;;;;;;4983443;28;20030;-82
2022/10/25 00:52:34;;;;;;;3.95;0.80;;;16.20;99.90;;;;;;4983252;28;20045;-81
2022/10/25 00:55:04;;;;;;;3.33;0.90;;;16.20;99.90;;;;;;4989754;28;20018;-83
2022/10/25 00:57:52;;;;;;;3.20;0.70;;;16.20;99.90;;;;;;4966052;28;20038;-82
2022/10/25 01:00:18;;;;;;;2.72;0.70;;;16.20;99.90;;;;;;4994467;28;20125;-82
2022/10/25 01:02:44;;;;;;;3.50;0.73;;;16.20;99.90;;;;;;4995018;28;20046;-80
2022/10/25 01:05:10;;;;;;;1.80;0.60;;;16.20;99.90;;;;;;4998491;28;20544;-82
2022/10/25 01:07:36;;;;;;;1.67;0.70;;;16.20;99.90;;;;;;4980530;28;20061;-82
2022/10/25 01:10:01;;;;;;;2.42;0.70;;;16.20;99.90;;;;;;4990243;28;20034;-81
2022/10/25 01:12:27;;;;;;;3.03;0.80;;;16.30;99.90;;;;;;4974615;28;20040;-81
2022/10/25 01:14:54;;;;;;;3.30;0.80;;;16.20;99.90;;;;;;4984769;28;20097;-81
2022/10/25 01:17:44;;;;;;;2.93;0.70;;;16.30;99.90;;;;;;4979266;28;20394;-81
2022/10/25 01:20:18;;;;;;;1.98;0.80;;;16.30;99.90;;;;;;4975633;28;20026;-82
2022/10/25 01:23:06;;;;;;;3.58;0.60;;;16.20;99.90;;;;;;4980049;28;20124;-82
2022/10/25 01:25:47;;;;;;;1.52;0.60;;;16.20;99.90;;;;;;4968005;28;20459;-83
2022/10/25 01:29:00;;;;;;;2.03;0.70;;;16.20;99.90;;;;;;4957161;28;20502;-81
2022/10/25 01:31:56;;;;;;;2.33;0.77;;;16.30;99.90;;;;;;4906348;29;20571;-82
2022/10/25 01:34:42;;;;;;;2.35;0.68;;;16.20;99.90;;;;;;4968733;28;20025;-81
2022/10/25 01:37:16;;;;;;;1.88;0.70;;;16.20;99.90;;;;;;4976399;28;20033;-81
2022/10/25 01:39:52;;;;;;;2.90;0.85;;;16.20;99.90;;;;;;4993198;28;20518;-81
2022/10/25 01:42:30;;;;;;;1.77;0.70;;;16.10;99.90;;;;;;4994225;28;20065;-82
2022/10/25 01:45:18;;;;;;;1.90;0.70;;;16.10;99.90;;;;;;4966863;28;20947;-82
2022/10/25 01:47:50;;;;;;;3.95;0.90;;;16.10;99.90;;;;;;4985309;28;20072;-83
2022/10/25 01:50:30;;;;;;;3.40;0.85;;;16.10;99.90;;;;;;4987707;28;20065;-82
2022/10/25 01:52:55;;;;;;;3.42;0.80;;;16.10;99.90;;;;;;4976602;28;20207;-82
2022/10/25 01:55:28;;;;;;;3.20;0.70;;;16.10;99.90;;;;;;5003590;28;20084;-82
2022/10/25 01:58:18;;;;;;;4.03;0.88;;;16.10;99.90;;;;;;4994581;28;20862;-81
2022/10/25 02:00:54;;;;;;;3.60;0.85;;;16.10;99.90;;;;;;4964084;28;20219;-81
2022/10/25 02:03:35;;;;;;;1.88;0.70;;;16.10;99.90;;;;;;4992225;28;20033;-81
2022/10/25 02:06:27;;;;;;;2.23;0.50;;;16.10;99.90;;;;;;4997680;28;20031;-82
2022/10/25 02:09:04;;;;;;;1.08;0.52;;;16.10;99.90;;;;;;4966677;28;20023;-82
2022/10/25 02:11:31;;;;;;;1.73;0.88;;;16.10;99.90;;;;;;4988806;28;20270;-82
2022/10/25 02:14:21;;;;;;;3.03;0.80;;;16.10;99.90;;;;;;4994928;28;20235;-82
2022/10/25 02:16:54;;;;;;;2.67;0.80;;;16.10;99.90;;;;;;4964914;28;20038;-83
2022/10/25 02:19:27;;;;;;;2.37;0.90;;;16.10;99.90;;;;;;4980901;28;20076;-81
2022/10/25 02:21:54;;;;;;;2.72;0.80;;;16.10;99.90;;;;;;4976273;28;20386;-83
2022/10/25 02:24:25;;;;;;;1.55;0.77;;;16.20;99.90;;;;;;4965103;28;20015;-82
2022/10/25 02:26:52;;;;;;;3.70;0.80;;;16.20;99.90;;;;;;4990474;28;20270;-81
2022/10/25 02:29:19;;;;;;;2.60;1.00;;;16.20;99.90;;;;;;5008473;28;21063;-81
2022/10/25 02:31:45;;;;;;;2.43;0.80;;;16.10;99.90;;;;;;4942953;28;20260;-82
2022/10/25 02:34:11;;;;;;;2.40;0.75;;;16.20;99.90;;;;;;4982080;28;20022;-81
2022/10/25 02:36:37;;;;;;;2.33;0.80;;;16.20;99.90;;;;;;4986274;28;20038;-81
2022/10/25 02:39:03;;;;;;;3.57;0.80;;;16.10;99.90;;;;;;4989104;28;20022;-82
2022/10/25 02:41:29;;;;;;;1.58;0.70;;;16.10;99.90;;;;;;4990232;28;20555;-82
2022/10/25 02:43:55;;;;;;;3.73;0.90;;;16.10;99.90;;;;;;4989208;28;20247;-81
2022/10/25 02:46:22;;;;;;;3.53;0.98;;;16.10;99.90;;;;;;4977563;28;20026;-81
2022/10/25 02:48:48;;;;;;;2.63;0.70;;;16.10;99.90;;;;;;4969315;28;22573;-82
2022/10/25 02:51:16;;;;;;;2.20;0.70;;;16.10;99.90;;;;;;4998702;28;20022;-82
2022/10/25 02:53:41;;;;;;;2.22;0.80;;;16.10;99.90;;;;;;4975643;28;20565;-81
2022/10/25 02:56:10;;;;;;;1.90;0.80;;;16.10;99.90;;;;;;4985123;28;20038;-82
2022/10/25 02:58:39;;;;;;;2.53;1.00;;;16.10;99.90;;;;;;4990874;28;20552;-81
2022/10/25 03:01:05;;;;;;;2.58;0.75;;;16.10;99.90;;;;;;4971983;28;20072;-82
2022/10/25 03:03:31;;;;;;;1.80;0.90;;;16.10;99.90;;;;;;4976425;28;20045;-81
2022/10/25 03:05:57;;;;;;;1.92;0.80;;;16.10;99.90;;;;;;4993600;28;20195;-81
2022/10/25 03:08:23;;;;;;;1.50;0.70;;;16.10;99.90;;;;;;4976147;28;20379;-82
2022/10/25 03:10:50;;;;;;;2.28;0.90;;;16.20;99.90;;;;;;4982548;28;20517;-82
2022/10/25 03:13:16;;;;;;;2.17;0.70;;;16.20;99.90;;;;;;4978820;28;20487;-82
2022/10/25 03:15:43;;;;;;;3.17;0.80;;;16.20;99.90;;;;;;4993324;28;20224;-81
2022/10/25 03:18:08;;;;;;;2.25;0.70;;;16.20;99.90;;;;;;4995592;28;20394;-81
2022/10/25 03:20:34;;;;;;;3.88;0.90;;;16.20;99.90;;;;;;4984863;28;20030;-82
2022/10/25 03:23:00;;;;;;;3.17;1.00;;;16.20;99.90;;;;;;4990256;28;20026;-81
2022/10/25 03:25:25;;;;;;;2.45;0.73;;;16.20;99.90;;;;;;4983217;28;20044;-81
2022/10/25 03:27:51;;;;;;;1.53;0.70;;;16.20;99.90;;;;;;4996156;28;20022;-81
2022/10/25 03:30:17;;;;;;;3.45;0.80;;;16.20;99.90;;;;;;4984423;28;20264;-82
2022/10/25 03:32:42;;;;;;;1.97;0.70;;;16.20;99.90;;;;;;4968628;28;20088;-81
2022/10/25 03:35:08;;;;;;;2.15;0.90;;;16.20;99.90;;;;;;4969778;28;20239;-81
2022/10/25 03:37:34;;;;;;;2.55;0.82;;;16.20;99.90;;;;;;4972252;28;20037;-81
2022/10/25 03:40:00;;;;;;;3.23;1.07;;;16.20;99.90;;;;;;4966251;28;20581;-81
2022/10/25 03:42:25;;;;;;;2.60;0.80;;;16.10;99.90;;;;;;4977945;28;20022;-81
2022/10/25 03:44:51;;;;;;;1.20;0.80;;;16.10;99.90;;;;;;4978353;28;20113;-81
2022/10/25 03:47:17;;;;;;;2.95;0.77;;;16.00;99.90;;;;;;4992386;28;20037;-81
2022/10/25 03:49:43;;;;;;;2.30;0.93;;;16.00;99.90;;;;;;4982069;28;20544;-81
2022/10/25 03:52:10;;;;;;;2.53;0.80;;;16.00;99.90;;;;;;4995501;28;20251;-81
2022/10/25 03:54:35;;;;;;;2.22;0.80;;;15.90;99.90;;;;;;4980291;28;20026;-81
2022/10/25 03:57:01;;;;;;;2.40;0.90;;;15.90;99.90;;;;;;4987962;28;20054;-81
2022/10/25 03:59:27;;;;;;;2.50;0.80;;;15.90;99.90;;;;;;4998265;28;20049;-81
2022/10/25 04:01:53;;;;;;;2.03;0.80;;;15.90;99.90;;;;;;4981134;28;20494;-80
2022/10/25 04:04:19;;;;;;;3.30;1.00;;;15.90;99.90;;;;;;4973799;28;20223;-82
2022/10/25 04:06:45;;;;;;;2.97;0.90;;;15.80;99.90;;;;;;4985781;28;20052;-81
2022/10/25 04:09:10;;;;;;;1.70;0.80;;;15.80;99.90;;;;;;4978078;28;20517;-82
2022/10/25 04:11:36;;;;;;;1.63;1.00;;;15.80;99.90;;;;;;4985409;28;20741;-81
2022/10/25 04:14:02;;;;;;;2.17;0.90;;;15.80;99.90;;;;;;4985346;28;20339;-81
2022/10/25 04:16:27;;;;;;;2.13;0.85;;;15.70;99.90;;;;;;4991298;28;20038;-81
2022/10/25 04:18:53;;;;;;;2.03;1.00;;;15.70;99.90;;;;;;4992924;28;20022;-80
2022/10/25 04:21:19;;;;;;;2.63;0.90;;;15.70;99.90;;;;;;4975780;28;20513;-82
2022/10/25 04:23:45;;;;;;;3.40;1.00;;;15.70;99.90;;;;;;4994398;28;20160;-81
2022/10/25 04:26:16;;;;;;;3.30;1.07;;;15.60;99.90;;;;;;4977450;28;20376;-82
2022/10/25 04:28:42;;;;;;;2.83;1.13;;;15.60;99.90;;;;;;4966642;28;20058;-82
2022/10/25 04:31:08;;;;;;;3.67;1.10;;;15.60;99.90;;;;;;4986718;28;20313;-81
2022/10/25 04:33:33;;;;;;;4.10;1.03;;;15.60;99.90;;;;;;4988596;28;20025;-81
2022/10/25 04:35:59;;;;;;;5.20;1.20;;;15.60;99.90;;;;;;4970613;28;20162;-81
2022/10/25 04:38:24;;;;;;;4.10;0.90;;;15.60;99.90;;;;;;4975878;28;20018;-82
2022/10/25 04:40:57;;;;;;;4.13;1.10;;;15.60;99.90;;;;;;4967994;28;20433;-81
2022/10/25 04:43:24;;;;;;;4.20;1.10;;;15.60;99.90;;;;;;4986404;28;20034;-81
2022/10/25 04:45:50;;;;;;;3.53;1.30;;;15.50;99.90;;;;;;4982122;28;20026;-81
2022/10/25 04:48:16;;;;;;;4.07;1.20;;;15.50;99.90;;;;;;4990241;28;20030;-81
2022/10/25 04:50:42;;;;;;;3.85;1.35;;;15.50;99.90;;;;;;4959868;28;20040;-80
2022/10/25 04:53:07;;;;;;;4.67;1.20;;;15.50;99.90;;;;;;4992656;28;20030;-82
2022/10/25 04:55:33;;;;;;;4.70;1.30;;;15.50;99.90;;;;;;4964468;28;20356;-81
2022/10/25 04:57:59;;;;;;;4.13;1.23;;;15.50;99.90;;;;;;4966752;28;20489;-80
2022/10/25 05:00:25;;;;;;;3.15;1.13;;;15.50;99.90;;;;;;4987986;28;20022;-81
2022/10/25 05:02:51;;;;;;;3.43;1.30;;;15.50;99.90;;;;;;4976255;28;20108;-81
2022/10/25 05:05:17;;;;;;;3.28;1.25;;;15.50;99.90;;;;;;4969225;28;20460;-81
2022/10/25 05:07:43;;;;;;;2.33;1.30;;;15.40;99.90;;;;;;4994426;28;20368;-82
2022/10/25 05:10:09;;;;;;;2.90;1.20;;;15.40;99.90;;;;;;4954174;28;20014;-81
2022/10/25 05:12:35;;;;;;;2.30;1.23;;;15.50;99.90;;;;;;4974125;28;20200;-81
2022/10/25 05:15:01;;;;;;;3.20;1.40;;;15.40;99.90;;;;;;4974618;28;20042;-81
2022/10/25 05:17:27;;;;;;;3.20;1.38;;;15.40;99.90;;;;;;4985209;28;20044;-82
2022/10/25 05:19:53;;;;;;;3.23;1.13;;;15.40;99.90;;;;;;4972265;28;20693;-81
2022/10/25 05:22:18;;;;;;;2.70;1.33;;;15.50;99.90;;;;;;4969694;28;20121;-81
2022/10/25 05:24:44;;;;;;;2.50;1.10;;;15.40;99.90;;;;;;4969108;28;20046;-82
2022/10/25 05:27:10;;;;;;;3.53;1.30;;;15.40;99.90;;;;;;4984366;28;20165;-82
2022/10/25 05:29:36;;;;;;;2.93;1.40;;;15.50;99.90;;;;;;4978082;28;20038;-81
2022/10/25 05:32:01;;;;;;;4.85;1.30;;;15.50;99.90;;;;;;4995469;28;20030;-81
2022/10/25 05:34:27;;;;;;;3.50;1.37;;;15.50;99.90;;;;;;4978978;28;20038;-81
2022/10/25 05:36:53;;;;;;;3.00;1.17;;;15.50;99.90;;;;;;4972299;28;20246;-82
2022/10/25 05:39:19;;;;;;;2.97;1.40;;;15.60;99.90;;;;;;4996176;28;20018;-81
2022/10/25 05:41:45;;;;;;;2.50;1.23;;;15.50;99.90;;;;;;4965224;28;20255;-82
2022/10/25 05:44:10;;;;;;;2.53;1.15;;;15.50;99.90;;;;;;4981336;28;20486;-81
2022/10/25 05:46:36;;;;;;;3.60;1.20;;;15.50;99.90;;;;;;4981695;28;20037;-81
2022/10/25 05:49:02;;;;;;;4.88;1.08;;;15.50;99.90;;;;;;4979972;28;20022;-82
2022/10/25 05:51:30;;;;;;;4.13;1.50;;;15.50;99.90;;;;;;4980542;28;20037;-81
2022/10/25 05:53:58;;;;;;;2.72;1.40;;;15.50;99.90;;;;;;4981824;28;20037;-81
2022/10/25 05:56:26;;;;;;;4.07;1.40;;;15.60;99.90;;;;;;4971159;28;20321;-81
2022/10/25 05:58:51;;;;;;;2.90;1.20;;;15.50;99.90;;;;;;4969727;28;20713;-81
2022/10/25 06:01:19;;;;;;;3.13;1.40;;;15.50;99.90;;;;;;4980997;28;20014;-81
2022/10/25 06:03:52;;;;;;;3.47;1.27;;;15.50;99.90;;;;;;4985638;28;20326;-82
2022/10/25 06:06:19;;;;;;;3.42;1.27;;;15.50;99.90;;;;;;4981130;28;20034;-81
2022/10/25 06:08:45;;;;;;;5.78;1.55;;;15.50;99.90;;;;;;4954030;28;21338;-81
2022/10/25 06:11:14;;;;;;;5.10;1.40;;;15.50;99.90;;;;;;4983591;28;20032;-81
2022/10/25 06:13:40;;;;;;;4.97;1.50;;;15.50;99.90;;;;;;4973863;28;20239;-81
2022/10/25 06:16:08;;;;;;;3.78;1.60;;;15.50;99.90;;;;;;4984979;28;20029;-81
2022/10/25 06:18:37;;;;;;;4.13;1.58;;;15.50;99.90;;;;;;4983745;28;20026;-82
2022/10/25 06:21:07;;;;;;;4.05;1.45;;;15.60;99.90;;;;;;4971565;28;20011;-81
2022/10/25 06:23:35;;;;;;;5.67;1.60;;;15.60;99.90;;;;;;4960846;28;20041;-82
2022/10/25 06:26:03;;;;;;;4.25;1.70;;;15.60;99.90;;;;;;4983882;28;20042;-81
2022/10/25 06:28:30;;;;;;;3.35;1.60;;;15.60;99.90;;;;;;4961900;28;20041;-81
2022/10/25 06:31:05;;;;;;;4.50;1.70;;;15.60;99.90;;;;;;4993878;28;20073;-82
2022/10/25 06:33:32;;;;;;;4.70;1.60;;;15.70;99.90;;;;;;4957792;28;21518;-81
2022/10/25 06:36:00;;;;;;;3.17;1.67;;;15.70;99.90;;;;;;4997705;28;20037;-82
2022/10/25 06:38:26;;;;;;;5.15;1.90;;;15.70;99.90;;;;;;4956094;28;20561;-81
2022/10/25 06:41:02;;;;;;;6.03;2.10;;;15.70;99.90;;;;;;4988399;28;20029;-81
2022/10/25 06:43:28;;;;;;;4.15;1.73;;;15.70;99.90;;;;;;4970712;28;20037;-82
2022/10/25 06:45:54;;;;;;;5.70;2.00;;;15.80;99.90;;;;;;4985323;28;20321;-81
2022/10/25 06:48:19;;;;;;;4.90;1.80;;;15.80;99.90;;;;;;4990831;28;20116;-82
2022/10/25 06:50:45;;;;;;;6.47;1.95;;;15.80;99.90;;;;;;4989882;28;20346;-81
2022/10/25 06:53:11;;;;;;;6.77;2.30;;;15.90;99.90;;;;;;4971067;28;20101;-81
2022/10/25 06:55:36;;;;;;;6.57;2.47;;;15.90;99.90;;;;;;4967291;28;20116;-82
2022/10/25 06:58:02;;;;;;;4.70;2.00;;;15.90;99.90;;;;;;4998715;28;20040;-81
2022/10/25 07:00:28;;;;;;;4.38;2.00;;;15.90;99.90;;;;;;4995888;28;20034;-81
2022/10/25 07:02:58;;;;;;;4.60;1.80;;;16.00;99.90;;;;;;4971326;28;20058;-82
2022/10/25 07:05:25;;;;;;;5.15;1.55;;;16.00;99.90;;;;;;4991189;28;20104;-81
2022/10/25 07:07:51;;;;;;;3.78;1.58;;;16.00;99.90;;;;;;4995621;28;20037;-82
2022/10/25 07:10:17;;;;;;;5.95;1.83;;;16.00;99.90;;;;;;4962939;28;20026;-82
2022/10/25 07:12:43;;;;;;;3.63;1.77;;;16.00;99.90;;;;;;4996547;28;20270;-82
2022/10/25 07:15:09;;;;;;;5.10;1.77;;;16.00;99.90;;;;;;4977879;28;20569;-81
2022/10/25 07:17:35;;;;;;;4.72;1.60;;;16.00;99.90;;;;;;4962563;28;20323;-82
2022/10/25 07:20:01;;;;;;;4.90;1.50;;;16.00;99.90;;;;;;4983660;28;20289;-81
2022/10/25 07:22:27;;;;;;;5.90;1.77;;;16.10;99.90;;;;;;4987107;28;20097;-81
2022/10/25 07:24:53;;;;;;;5.63;1.60;;;16.10;99.90;;;;;;4991088;28;20597;-82
2022/10/25 07:27:19;;;;;;;4.07;1.50;;;16.20;99.90;;;;;;4975215;28;20045;-81
2022/10/25 07:29:44;;;;;;;4.17;1.37;;;16.20;99.90;;;;;;4997529;28;20821;-81
2022/10/25 07:32:10;;;;;;;4.25;1.20;;;16.20;99.90;;;;;;4998765;28;20029;-81
2022/10/25 07:34:36;;;;;;;4.97;1.30;;;16.30;99.90;;;;;;4980792;28;20727;-81
2022/10/25 07:37:02;;;;;;;4.30;1.10;;;16.30;99.90;;;;;;5000558;28;20039;-81
2022/10/25 07:39:28;;;;;;;2.67;1.07;;;16.40;99.90;;;;;;4978995;28;20037;-82
2022/10/25 07:41:53;;;;;;;7.85;1.42;;;16.50;99.90;;;;;;4976325;28;20022;-81
2022/10/25 07:44:20;;;;;;;5.97;1.30;;;16.50;99.90;;;;;;4984794;28;20033;-81
2022/10/25 07:46:46;;;;;;;4.10;1.42;;;16.60;99.90;;;;;;4994376;28;20294;-81
2022/10/25 07:49:12;;;;;;;4.95;1.10;;;16.70;99.90;;;;;;4978146;28;20030;-82
2022/10/25 07:51:38;;;;;;;3.08;1.35;;;16.70;99.90;;;;;;4991280;28;20277;-81
2022/10/25 07:54:04;;;;;;;3.47;1.20;;;16.70;99.90;;;;;;4969936;28;20490;-82
2022/10/25 07:56:30;;;;;;;3.08;1.10;;;16.70;99.90;;;;;;4983907;28;20364;-81
2022/10/25 07:58:55;;;;;;;3.13;1.20;;;16.80;99.90;;;;;;4974153;28;20021;-81
2022/10/25 08:01:24;;;;;;;3.83;1.13;;;16.80;99.90;;;;;;5003801;28;20471;-81
2022/10/25 08:03:51;;;;;;;2.45;1.00;;;16.70;99.90;;;;;;4985797;28;20329;-82
2022/10/25 08:06:18;;;;;;;2.58;1.10;;;16.80;99.90;;;;;;4996833;28;20447;-81
2022/10/25 08:08:43;;;;;;;5.33;1.30;;;16.90;99.90;;;;;;4990438;28;20029;-80
2022/10/25 08:11:09;;;;;;;1.88;1.02;;;16.90;99.90;;;;;;4987997;28;20134;-82
2022/10/25 08:13:36;;;;;;;3.08;1.30;;;16.90;99.90;;;;;;4971669;28;20050;-81
2022/10/25 08:16:02;;;;;;;2.00;1.03;;;16.90;99.90;;;;;;4990706;28;20038;-81
2022/10/25 08:18:28;;;;;;;2.75;1.00;;;16.90;99.90;;;;;;4992912;28;20328;-81
2022/10/25 08:20:54;;;;;;;3.35;0.98;;;16.90;99.90;;;;;;4975901;28;20018;-81
2022/10/25 08:23:19;;;;;;;2.13;0.90;;;17.00;99.90;;;;;;4996486;28;20030;-81
2022/10/25 08:25:45;;;;;;;4.15;1.35;;;17.10;99.90;;;;;;4976544;28;20172;-81
2022/10/25 08:28:11;;;;;;;3.55;1.10;;;17.10;99.90;;;;;;4968677;28;20127;-82
2022/10/25 08:30:38;;;;;;;4.13;1.20;;;17.20;99.90;;;;;;4997806;28;20029;-82
2022/10/25 08:33:05;;;;;;;4.90;1.20;;;17.30;99.90;;;;;;4985239;28;20034;-82
2022/10/25 08:35:31;;;;;;;4.28;1.10;;;17.40;99.90;;;;;;4988063;28;20040;-82
2022/10/25 08:38:00;;;;;;;3.75;1.20;;;17.40;99.90;;;;;;4994905;28;20120;-81
2022/10/25 08:40:44;;;;;;;3.80;1.20;;;17.50;99.90;;;;;;4994921;28;20113;-81
2022/10/25 08:43:28;;;;;;;3.55;1.17;;;17.60;99.90;;;;;;4987757;28;20121;-82
2022/10/25 08:45:59;;;;;;;3.70;1.10;;;17.60;99.90;;;;;;4993306;28;20026;-81
2022/10/25 08:48:32;;;;;;;4.05;1.50;;;17.70;99.90;;;;;;4988889;28;20025;-84
2022/10/25 08:51:09;;;;;;;5.18;1.27;;;17.70;99.90;;;;;;4963781;28;20395;-81
2022/10/25 08:53:39;;;;;;;4.67;1.43;;;17.70;99.90;;;;;;4997633;28;20070;-82
2022/10/25 08:56:10;;;;;;;6.03;1.20;;;17.80;99.90;;;;;;4991519;28;20021;-81
2022/10/25 08:58:45;;;;;;;3.92;1.20;;;17.80;99.90;;;;;;4966166;28;20843;-80
2022/10/25 09:01:42;;;;;;;4.03;1.25;;;17.90;99.90;;;;;;5011726;28;20018;-80
2022/10/25 09:04:08;;;;;;;3.97;1.45;;;17.90;99.90;;;;;;4992007;28;20503;-81
2022/10/25 09:06:57;;;;;;;2.87;1.50;;;18.00;99.90;;;;;;4974607;28;20038;-81
2022/10/25 09:09:36;;;;;;;4.45;1.40;;;18.20;99.90;;;;;;4985583;28;20045;-81
2022/10/25 09:12:07;;;;;;;3.88;0.98;;;18.40;99.90;;;;;;4979828;28;20385;-82
2022/10/25 09:15:00;;;;;;;3.22;1.13;;;18.80;99.90;;;;;;4952824;28;20044;-79
2022/10/25 09:17:50;;;;;;;3.30;1.10;;;19.20;99.90;;;;;;4978596;28;20034;-82
2022/10/25 09:20:20;;;;;;;2.83;1.00;;;19.60;99.90;;;;;;4985442;28;20034;-81
2022/10/25 09:22:45;;;;;;;4.20;1.40;;;20.00;99.90;;;;;;4975351;28;20409;-82
2022/10/25 09:25:37;;;;;;;3.73;1.20;;;20.40;99.90;;;;;;4995660;28;20038;-81
2022/10/25 09:28:10;;;;;;;2.85;1.17;;;20.80;99.90;;;;;;4983703;28;20030;-81
2022/10/25 09:30:42;;;;;;;3.00;1.20;;;21.20;99.90;;;;;;4947532;28;20146;-82
2022/10/25 09:33:22;;;;;;;3.15;1.02;;;21.40;99.90;;;;;;4976476;28;20027;-81
2022/10/25 09:35:55;;;;;;;3.13;1.08;;;21.60;99.90;;;;;;4979309;28;20289;-82
2022/10/25 09:38:47;;;;;;;3.20;1.27;;;21.70;99.90;;;;;;4988597;28;20032;-81
2022/10/25 09:41:34;;;;;;;3.08;1.30;;;21.80;99.80;;;;;;4996474;28;20026;-81
2022/10/25 09:44:16;;;;;;;2.72;0.85;;;22.00;99.90;;;;;;4990498;28;20030;-82
2022/10/25 09:46:54;;;;;;;2.53;1.10;;;22.10;99.50;;;;;;4966157;28;20033;-81
2022/10/25 09:49:47;;;;;;;2.78;1.10;;;22.10;99.90;;;;;;5000370;28;20334;-81
2022/10/25 09:52:17;;;;;;;2.90;1.00;;;22.10;98.90;;;;;;4958740;28;20548;-81
2022/10/25 09:55:15;;;;;;;2.15;0.90;;;22.00;99.70;;;;;;4979058;28;20069;-82
2022/10/25 09:57:41;;;;;;;3.70;0.93;;;21.90;98.60;;;;;;4995763;28;20378;-82
2022/10/25 10:00:12;;;;;;;2.40;0.90;;;21.80;98.90;;;;;;4958667;28;20144;-81
2022/10/25 10:02:39;;;;;;;2.70;1.00;;;21.70;98.60;;;;;;4993210;28;20023;-80
2022/10/25 10:05:04;;;;;;;4.67;1.10;;;21.60;99.10;;;;;;4981075;28;20045;-81
2022/10/25 10:07:34;;;;;;;3.17;0.90;;;21.50;98.70;;;;;;4984616;28;20023;-81
2022/10/25 10:10:07;;;;;;;1.67;0.90;;;21.40;98.50;;;;;;4973907;28;20365;-81
2022/10/25 10:12:41;;;;;;;3.63;1.00;;;21.30;99.80;;;;;;4979919;28;20026;-81
2022/10/25 10:15:30;;;;;;;3.72;1.00;;;21.30;99.90;;;;;;4986423;28;20175;-81
2022/10/25 10:18:21;;;;;;;2.67;1.27;;;21.50;99.30;;;;;;4957800;28;20103;-81
2022/10/25 10:20:59;;;;;;;2.45;1.13;;;21.60;99.80;;;;;;4974594;28;20638;-82
2022/10/25 10:23:29;;;;;;;4.45;1.15;;;21.90;99.90;;;;;;4988391;28;20025;-81
2022/10/25 10:25:55;;;;;;;2.60;1.00;;;22.10;99.90;;;;;;4989782;28;20601;-80
2022/10/25 10:28:21;;;;;;;3.63;1.20;;;22.30;99.90;;;;;;4986508;28;20022;-82
2022/10/25 10:30:57;;;;;;;3.53;1.07;;;22.40;99.90;;;;;;4997122;28;20522;-82
2022/10/25 10:33:30;;;;;;;3.15;1.10;;;22.50;99.30;;;;;;4974042;28;20522;-81
2022/10/25 10:36:16;;;;;;;4.18;1.10;;;22.60;99.50;;;;;;4983390;28;20017;-82
2022/10/25 10:38:41;;;;;;;2.55;1.00;;;22.60;99.90;;;;;;4983150;28;20038;-82
2022/10/25 10:41:25;;;;;;;2.27;1.00;;;22.90;99.90;;;;;;4967914;28;20529;-82
2022/10/25 10:44:06;;;;;;;3.05;1.00;;;23.10;99.90;;;;;;4968087;28;20026;-81
2022/10/25 10:46:32;;;;;;;2.78;1.10;;;23.40;99.90;;;;;;4993086;28;20033;-82
2022/10/25 10:49:00;;;;;;;1.80;0.87;;;23.60;99.80;;;;;;4967552;28;20310;-81
2022/10/25 10:51:42;;;;;;;3.67;0.98;;;23.70;99.70;;;;;;4995851;28;20552;-82
2022/10/25 10:54:25;;;;;;;2.88;1.08;;;23.80;97.70;;;;;;4958259;28;20549;-81
2022/10/25 10:57:02;;;;;;;2.85;1.10;;;24.00;98.40;;;;;;5010360;28;20027;-82
2022/10/25 10:59:50;;;;;;;2.25;0.90;;;24.20;99.40;;;;;;4988576;28;20117;-81
2022/10/25 11:02:48;;;;;;;1.53;0.90;;;24.40;98.60;;;;;;5001619;28;20679;-82
2022/10/25 11:05:38;;;;;;;3.58;1.00;;;24.60;99.00;;;;;;4961557;28;20414;-81
2022/10/25 11:08:07;;;;;;;2.03;0.98;;;25.00;99.90;;;;;;4985299;28;20132;-82
2022/10/25 11:10:34;;;;;;;1.50;0.90;;;25.30;99.90;;;;;;4975056;28;20037;-81
2022/10/25 11:13:19;;;;;;;3.83;1.00;;;25.50;99.90;;;;;;4993152;28;20026;-82
2022/10/25 11:15:50;;;;;;;3.17;1.00;;;25.80;97.00;;;;;;4985138;28;20038;-82
2022/10/25 11:18:18;;;;;;;1.40;0.80;;;25.90;95.30;;;;;;4972915;28;20092;-80
2022/10/25 11:20:57;;;;;;;3.05;0.98;;;25.80;96.40;;;;;;4975535;28;20022;-82
2022/10/25 11:23:36;;;;;;;2.33;1.00;;;25.70;94.80;;;;;;4986012;28;20034;-81
2022/10/25 11:26:08;;;;;;;2.55;0.93;;;25.70;95.60;;;;;;4994215;28;20151;-81
2022/10/25 11:29:03;;;;;;;1.47;0.70;;;25.80;95.70;;;;;;4984010;28;20664;-81
2022/10/25 11:31:54;;;;;;;2.95;0.90;;;25.80;93.90;;;;;;4984157;28;20029;-81
2022/10/25 11:34:39;;;;;;;1.60;0.80;;;25.70;93.50;;;;;;4992229;28;20018;-81
2022/10/25 11:37:17;;;;;;;3.00;1.10;;;25.60;93.80;;;;;;4956685;28;20339;-81
2022/10/25 11:40:07;;;;;;;2.40;1.10;;;25.40;92.60;;;;;;4993976;28;20548;-82
2022/10/25 11:43:34;;;;;;;1.33;0.60;;;25.30;92.20;;;;;;4980353;28;20536;-81
2022/10/25 11:46:13;;;;;;;2.35;0.80;;;25.10;91.70;;;;;;4961670;28;20259;-82
2022/10/25 11:48:47;;;;;;;2.25;0.70;;;24.80;91.10;;;;;;4990464;28;20041;-81
2022/10/25 11:51:39;;;;;;;1.88;0.60;;;24.50;91.60;;;;;;4964395;28;20065;-82
2022/10/25 11:54:10;;;;;;;2.55;1.00;;;24.20;92.50;;;;;;4989052;28;20041;-81
2022/10/25 11:57:02;;;;;;;3.57;0.97;;;24.00;92.60;;;;;;4986436;28;20045;-81
2022/10/25 11:59:56;;;;;;;1.92;1.00;;;23.80;92.50;;;;;;4962518;28;20460;-82
2022/10/25 12:02:34;;;;;;;4.05;1.10;;;23.60;91.80;;;;;;4991290;28;20407;-81
2022/10/25 12:05:26;;;;;;;3.35;1.20;;;23.60;93.30;;;;;;4963423;28;20054;-81
2022/10/25 12:08:15;;;;;;;3.30;1.17;;;23.60;96.20;;;;;;4976612;28;20022;-81
2022/10/25 12:10:46;;;;;;;5.03;1.57;;;23.90;95.70;;;;;;4972477;28;20103;-81
2022/10/25 12:13:30;;;;;;;4.18;1.55;;;24.00;96.40;;;;;;4998301;28;20386;-81
2022/10/25 12:15:58;;;;;;;2.33;1.30;;;24.10;94.10;;;;;;4995735;28;20041;-81
2022/10/25 12:18:46;;;;;;;3.22;1.20;;;24.20;94.50;;;;;;4973031;28;20038;-83
2022/10/25 12:21:20;;;;;;;3.10;1.27;;;24.10;93.20;;;;;;4982598;28;20293;-81
2022/10/25 12:23:49;;;;;;;2.07;0.80;;;24.20;94.40;;;;;;4979822;28;20648;-81
2022/10/25 12:26:34;;;;;;;1.98;0.80;;;24.40;95.70;;;;;;4954587;28;20114;-81
2022/10/25 12:29:09;;;;;;;3.47;1.00;;;24.70;94.10;;;;;;4997249;28;20072;-82
2022/10/25 12:31:39;;;;;;;2.03;0.95;;;25.00;95.90;;;;;;4987043;28;20184;-81
2022/10/25 12:34:19;;;;;;;2.70;1.13;;;25.20;96.20;;;;;;4984900;28;20117;-81
2022/10/25 12:36:48;;;;;;;2.60;0.90;;;25.50;94.70;;;;;;4994436;28;20042;-81
2022/10/25 12:39:29;;;;;;;2.97;1.00;;;25.50;93.60;;;;;;4964974;28;20034;-81
2022/10/25 12:42:03;;;;;;;2.67;0.70;;;25.50;91.90;;;;;;4999301;28;20301;-80
2022/10/25 12:44:59;;;;;;;2.30;0.80;;;25.70;94.80;;;;;;4992720;28;20014;-81
2022/10/25 12:47:53;;;;;;;1.63;0.80;;;25.80;93.20;;;;;;4993852;28;20025;-80
2022/10/25 12:50:45;;;;;;;2.87;0.90;;;26.10;93.50;;;;;;4989617;28;20032;-81
2022/10/25 12:53:54;;;;;;;1.92;0.95;;;26.40;92.60;;;;;;4987573;28;20033;-81
2022/10/25 12:56:35;;;;;;;2.42;0.60;;;26.40;90.20;;;;;;4977454;28;20018;-81
2022/10/25 12:59:13;;;;;;;1.30;0.70;;;26.20;91.40;;;;;;4964413;28;20100;-81
2022/10/25 13:01:51;;;;;;;3.45;0.82;;;26.20;91.80;;;;;;4980840;28;20287;-80
2022/10/25 13:04:39;;;;;;;1.80;0.70;;;26.10;91.40;;;;;;4998786;28;20386;-81
2022/10/25 13:07:06;;;;;;;2.17;0.80;;;26.10;91.50;;;;;;4992906;28;20034;-82
2022/10/25 13:09:34;;;;;;;3.35;0.70;;;26.10;92.90;;;;;;4968097;28;20039;-81
2022/10/25 13:12:04;;;;;;;2.05;0.80;;;26.00;92.20;;;;;;4982315;28;20022;-82